createdAt,value
2018-12-17T00:02:26.412Z,1.82
2018-12-17T00:04:55.476Z,1.82
2018-12-17T00:07:24.566Z,1.82
2018-12-17T00:09:53.636Z,1.82
2018-12-17T00:12:22.766Z,1.81
2018-12-17T00:14:51.934Z,1.81
2018-12-17T00:17:20.989Z,1.80
2018-12-17T00:19:50.282Z,1.81
2018-12-17T00:22:19.158Z,1.80
2018-12-17T00:24:48.238Z,1.82
2018-12-17T00:27:17.263Z,1.81
2018-12-17T00:29:46.376Z,1.81
2018-12-17T00:32:15.405Z,1.79
2018-12-17T00:34:44.472Z,1.80
2018-12-17T00:37:13.541Z,1.81
2018-12-17T00:39:42.621Z,1.80
2018-12-17T00:42:11.650Z,1.81
2018-12-17T00:44:40.993Z,1.81
2018-12-17T00:47:10.047Z,1.82
2018-12-17T00:49:39.108Z,1.83
2018-12-17T00:52:08.188Z,1.84
2018-12-17T00:54:37.270Z,1.84
2018-12-17T00:57:06.297Z,1.83
2018-12-17T00:59:35.644Z,1.83
2018-12-17T01:02:04.708Z,1.84
2018-12-17T01:04:33.778Z,1.84
2018-12-17T01:07:02.842Z,1.85
2018-12-17T01:09:31.921Z,1.84
2018-12-17T01:12:00.953Z,1.86
2018-12-17T01:14:30.091Z,1.86
2018-12-17T01:16:59.119Z,1.86
2018-12-17T01:19:28.401Z,1.85
2018-12-17T01:21:57.240Z,1.85
2018-12-17T01:24:26.314Z,1.84
2018-12-17T01:26:55.350Z,1.84
2018-12-17T01:29:24.466Z,1.84
2018-12-17T01:31:53.498Z,1.85
2018-12-17T01:34:22.580Z,1.84
2018-12-17T01:36:51.683Z,1.83
2018-12-17T01:39:20.766Z,1.81
2018-12-17T01:41:49.798Z,1.79
2018-12-17T01:44:18.907Z,1.78
2018-12-17T01:46:47.939Z,1.77
2018-12-17T01:49:17.014Z,1.73
2018-12-17T01:51:46.094Z,1.73
2018-12-17T01:54:15.170Z,1.73
2018-12-17T01:56:44.205Z,1.75
2018-12-17T01:59:13.304Z,1.74
2018-12-17T02:01:42.337Z,1.71
2018-12-17T02:04:11.623Z,1.70
2018-12-17T02:06:40.486Z,1.70
2018-12-17T02:09:09.613Z,1.70
2018-12-17T02:11:38.644Z,1.67
2018-12-17T02:14:07.784Z,1.69
2018-12-17T02:16:36.884Z,1.69
2018-12-17T02:19:05.960Z,1.69
2018-12-17T02:21:35.024Z,1.70
2018-12-17T02:24:04.180Z,1.69
2018-12-17T02:26:33.133Z,1.71
2018-12-17T02:29:02.234Z,1.71
2018-12-17T02:31:31.290Z,1.70
2018-12-17T02:34:00.349Z,1.70
2018-12-17T02:36:29.475Z,1.71
2018-12-17T02:38:58.567Z,1.71
2018-12-17T02:41:27.601Z,1.71
2018-12-17T02:43:56.702Z,1.71
2018-12-17T02:46:25.741Z,1.72
2018-12-17T02:48:55.038Z,1.71
2018-12-17T02:51:23.884Z,1.69
2018-12-17T02:53:52.955Z,1.69
2018-12-17T02:56:21.975Z,1.70
2018-12-17T02:58:51.371Z,1.69
2018-12-17T03:01:20.203Z,1.69
2018-12-17T03:03:49.267Z,1.68
2018-12-17T03:06:18.319Z,1.68
2018-12-17T03:08:47.590Z,1.70
2018-12-17T03:11:16.412Z,1.71
2018-12-17T03:13:45.524Z,1.73
2018-12-17T03:16:15.572Z,1.72
2018-12-17T03:18:44.650Z,1.71
2018-12-17T03:21:13.758Z,1.72
2018-12-17T03:23:42.794Z,1.70
2018-12-17T03:26:11.848Z,1.72
2018-12-17T03:28:40.933Z,1.73
2018-12-17T03:31:10.003Z,1.73
2018-12-17T03:33:39.069Z,1.74
2018-12-17T03:36:08.152Z,1.73
2018-12-17T03:38:37.205Z,1.74
2018-12-17T03:41:06.264Z,1.73
2018-12-17T03:43:35.364Z,1.72
2018-12-17T03:46:04.427Z,1.71
2018-12-17T03:48:33.483Z,1.71
2018-12-17T03:51:02.564Z,1.73
2018-12-17T03:53:31.617Z,1.73
2018-12-17T03:56:00.661Z,1.73
2018-12-17T03:58:29.744Z,1.72
2018-12-17T04:00:58.792Z,1.71
2018-12-17T04:03:27.858Z,1.71
2018-12-17T04:05:56.974Z,1.69
2018-12-17T04:08:26.038Z,1.68
2018-12-17T04:10:55.101Z,1.69
2018-12-17T04:13:24.200Z,1.69
2018-12-17T04:15:53.257Z,1.69
2018-12-17T04:18:22.310Z,1.68
2018-12-17T04:20:51.394Z,1.69
2018-12-17T04:23:20.450Z,1.67
2018-12-17T04:25:49.517Z,1.68
2018-12-17T04:28:18.666Z,1.69
2018-12-17T04:30:47.727Z,1.71
2018-12-17T04:33:16.785Z,1.69
2018-12-17T04:35:45.867Z,1.67
2018-12-17T04:38:14.929Z,1.68
2018-12-17T04:40:43.981Z,1.68
2018-12-17T04:43:13.066Z,1.67
2018-12-17T04:45:42.116Z,1.67
2018-12-17T04:48:11.181Z,1.67
2018-12-17T04:50:40.380Z,1.65
2018-12-17T04:53:09.442Z,1.65
2018-12-17T04:55:38.493Z,1.65
2018-12-17T04:58:07.794Z,1.65
2018-12-17T05:00:36.847Z,1.67
2018-12-17T05:03:05.908Z,1.67
2018-12-17T05:05:35.011Z,1.65
2018-12-17T05:08:04.053Z,1.64
2018-12-17T05:10:33.113Z,1.63
2018-12-17T05:13:02.213Z,1.64
2018-12-17T05:15:31.317Z,1.65
2018-12-17T05:18:00.328Z,1.64
2018-12-17T05:20:29.439Z,1.62
2018-12-17T05:22:58.494Z,1.65
2018-12-17T05:25:27.558Z,1.65
2018-12-17T05:27:56.640Z,1.65
2018-12-17T05:30:25.708Z,1.66
2018-12-17T05:32:54.758Z,1.67
2018-12-17T05:35:23.887Z,1.68
2018-12-17T05:37:52.951Z,1.68
2018-12-17T05:40:22.002Z,1.69
2018-12-17T05:42:51.097Z,1.69
2018-12-17T05:45:20.313Z,1.69
2018-12-17T05:47:49.378Z,1.69
2018-12-17T05:50:18.453Z,1.69
2018-12-17T05:52:47.510Z,1.69
2018-12-17T05:55:16.594Z,1.70
2018-12-17T05:57:45.890Z,1.70
2018-12-17T06:00:14.944Z,1.70
2018-12-17T06:02:44.006Z,1.71
2018-12-17T06:05:13.410Z,1.70
2018-12-17T06:07:42.450Z,1.70
2018-12-17T06:10:11.509Z,1.68
2018-12-17T06:12:40.586Z,1.69
2018-12-17T06:15:09.662Z,1.69
2018-12-17T06:17:38.708Z,1.68
2018-12-17T06:20:07.839Z,1.66
2018-12-17T06:22:36.892Z,1.67
2018-12-17T06:25:05.967Z,1.67
2018-12-17T06:27:37.095Z,1.66
2018-12-17T06:30:04.111Z,1.66
2018-12-17T06:32:33.135Z,1.67
2018-12-17T06:35:02.243Z,1.68
2018-12-17T06:37:31.279Z,1.68
2018-12-17T06:40:00.337Z,1.68
2018-12-17T06:42:29.840Z,1.69
2018-12-17T06:44:58.901Z,1.69
2018-12-17T06:47:28.346Z,1.70
2018-12-17T06:49:57.442Z,1.70
2018-12-17T06:52:26.495Z,1.72
2018-12-17T06:54:55.553Z,1.68
2018-12-17T06:57:24.640Z,1.64
2018-12-17T06:59:53.704Z,1.58
2018-12-17T07:02:22.755Z,1.52
2018-12-17T07:04:51.852Z,1.49
2018-12-17T07:07:20.922Z,1.48
2018-12-17T07:09:49.982Z,1.46
2018-12-17T07:12:19.071Z,1.46
2018-12-17T07:14:48.131Z,1.46
2018-12-17T07:17:17.207Z,1.46
2018-12-17T07:19:46.297Z,1.47
2018-12-17T07:22:15.383Z,1.45
2018-12-17T07:24:44.445Z,1.44
2018-12-17T07:27:13.540Z,1.43
2018-12-17T07:29:49.559Z,1.44
2018-12-17T07:32:11.665Z,1.46
2018-12-17T07:34:40.758Z,1.49
2018-12-17T07:37:09.823Z,1.51
2018-12-17T07:39:38.890Z,1.52
2018-12-17T07:42:07.981Z,1.54
2018-12-17T07:44:37.047Z,1.58
2018-12-17T07:47:06.109Z,1.59
2018-12-17T07:49:35.217Z,1.63
2018-12-17T07:52:04.275Z,1.65
2018-12-17T07:54:33.330Z,1.68
2018-12-17T07:57:02.409Z,1.70
2018-12-17T07:59:31.466Z,1.73
2018-12-17T08:02:00.530Z,1.76
2018-12-17T08:04:29.615Z,1.77
2018-12-17T08:06:58.672Z,1.80
2018-12-17T08:09:27.723Z,1.78
2018-12-17T08:11:56.822Z,1.78
2018-12-17T08:14:25.879Z,1.76
2018-12-17T08:16:54.940Z,1.77
2018-12-17T08:19:24.029Z,1.80
2018-12-17T08:21:53.091Z,1.82
2018-12-17T08:24:22.145Z,1.85
2018-12-17T08:26:51.259Z,1.87
2018-12-17T08:29:20.615Z,1.88
2018-12-17T08:31:49.657Z,1.90
2018-12-17T08:34:19.004Z,1.91
2018-12-17T08:36:48.052Z,1.92
2018-12-17T08:39:17.141Z,1.96
2018-12-17T08:41:46.186Z,1.95
2018-12-17T08:44:15.243Z,1.97
2018-12-17T08:46:44.288Z,2.00
2018-12-17T08:49:13.376Z,2.08
2018-12-17T08:51:42.433Z,2.14
2018-12-17T08:54:11.501Z,2.20
2018-12-17T08:56:40.607Z,2.24
2018-12-17T08:59:09.669Z,2.31
2018-12-17T09:01:38.729Z,2.29
2018-12-17T09:04:07.817Z,2.34
2018-12-17T09:06:36.866Z,2.43
2018-12-17T09:09:05.952Z,2.51
2018-12-17T09:11:35.037Z,2.57
2018-12-17T09:14:04.094Z,2.59
2018-12-17T09:16:33.159Z,2.59
2018-12-17T09:19:02.281Z,2.58
2018-12-17T09:21:31.336Z,2.51
2018-12-17T09:24:00.400Z,2.51
2018-12-17T09:26:29.486Z,2.41
2018-12-17T09:28:58.541Z,2.42
2018-12-17T09:31:27.670Z,2.39
2018-12-17T09:33:56.685Z,2.38
2018-12-17T09:36:26.735Z,2.38
2018-12-17T09:38:55.773Z,2.37
2018-12-17T09:41:24.890Z,2.37
2018-12-17T09:43:53.932Z,2.33
2018-12-17T09:46:23.011Z,2.31
2018-12-17T09:48:52.067Z,2.30
2018-12-17T09:51:21.155Z,2.28
2018-12-17T09:53:50.196Z,2.28
2018-12-17T09:56:19.507Z,2.27
2018-12-17T09:58:48.336Z,2.27
2018-12-17T10:01:17.417Z,2.22
2018-12-17T10:03:46.526Z,2.21
2018-12-17T10:06:15.597Z,2.17
2018-12-17T10:08:44.633Z,2.15
2018-12-17T10:11:13.734Z,2.12
2018-12-17T10:13:42.777Z,2.13
2018-12-17T10:16:11.841Z,2.13
2018-12-17T10:18:40.905Z,2.09
2018-12-17T10:21:09.977Z,2.08
2018-12-17T10:23:39.247Z,2.02
2018-12-17T10:26:08.350Z,2.06
2018-12-17T10:28:37.689Z,2.07
2018-12-17T10:31:06.741Z,2.07
2018-12-17T10:33:35.903Z,2.06
2018-12-17T10:36:04.973Z,2.05
2018-12-17T10:38:34.003Z,2.02
2018-12-17T10:41:03.117Z,2.01
2018-12-17T10:43:32.151Z,1.97
2018-12-17T10:46:01.220Z,2.01
2018-12-17T10:48:30.294Z,2.04
2018-12-17T10:50:59.371Z,2.08
2018-12-17T10:53:28.414Z,2.11
2018-12-17T10:55:57.724Z,2.11
2018-12-17T10:58:26.547Z,2.13
2018-12-17T11:01:01.237Z,2.13
2018-12-17T11:03:30.278Z,2.15
2018-12-17T11:05:59.334Z,2.15
2018-12-17T11:08:28.613Z,2.20
2018-12-17T11:10:57.661Z,2.26
2018-12-17T11:13:26.717Z,2.29
2018-12-17T11:15:55.805Z,2.32
2018-12-17T11:18:24.869Z,2.35
2018-12-17T11:20:53.931Z,2.36
2018-12-17T11:23:23.018Z,2.38
2018-12-17T11:25:52.076Z,2.34
2018-12-17T11:28:21.228Z,2.36
2018-12-17T11:30:50.340Z,2.38
2018-12-17T11:33:19.402Z,2.42
2018-12-17T11:35:48.465Z,2.45
2018-12-17T11:38:17.556Z,2.49
2018-12-17T11:40:46.608Z,2.52
2018-12-17T11:43:15.671Z,2.54
2018-12-17T11:45:44.756Z,2.58
2018-12-17T11:48:13.815Z,2.60
2018-12-17T11:50:42.869Z,2.55
2018-12-17T11:53:11.993Z,2.55
2018-12-17T11:55:41.054Z,2.55
2018-12-17T11:58:10.128Z,2.53
2018-12-17T12:00:39.226Z,2.46
2018-12-17T12:03:08.282Z,2.45
2018-12-17T12:05:37.344Z,2.45
2018-12-17T12:08:06.434Z,2.42
2018-12-17T12:10:35.486Z,2.41
2018-12-17T12:13:04.555Z,2.36
2018-12-17T12:15:33.685Z,2.41
2018-12-17T12:18:02.751Z,2.42
2018-12-17T12:20:31.807Z,2.42
2018-12-17T12:23:00.899Z,2.45
2018-12-17T12:25:29.965Z,2.47
2018-12-17T12:27:59.015Z,2.49
2018-12-17T12:30:28.096Z,2.52
2018-12-17T12:32:57.164Z,2.53
2018-12-17T12:35:26.224Z,2.55
2018-12-17T12:37:55.360Z,2.58
2018-12-17T12:40:24.409Z,2.61
2018-12-17T12:42:53.465Z,2.62
2018-12-17T12:45:22.569Z,2.66
2018-12-17T12:47:51.625Z,2.67
2018-12-17T12:50:20.686Z,2.67
2018-12-17T12:52:49.871Z,2.65
2018-12-17T12:55:18.938Z,2.65
2018-12-17T12:57:48.000Z,2.64
2018-12-17T13:00:17.088Z,2.62
2018-12-17T13:02:46.144Z,2.64
2018-12-17T13:05:15.220Z,2.65
2018-12-17T13:07:44.326Z,2.67
2018-12-17T13:10:13.414Z,2.67
2018-12-17T13:12:42.445Z,2.68
2018-12-17T13:15:11.768Z,2.70
2018-12-17T13:17:40.615Z,2.70
2018-12-17T13:20:09.677Z,2.66
2018-12-17T13:22:38.897Z,2.63
2018-12-17T13:25:07.969Z,2.56
2018-12-17T13:27:37.039Z,2.48
2018-12-17T13:30:06.147Z,2.40
2018-12-17T13:32:35.215Z,2.33
2018-12-17T13:35:04.375Z,2.32
2018-12-17T13:37:33.458Z,2.34
2018-12-17T13:40:02.534Z,2.34
2018-12-17T13:42:31.606Z,2.33
2018-12-17T13:45:00.713Z,2.24
2018-12-17T13:47:29.768Z,2.27
2018-12-17T13:49:58.818Z,2.26
2018-12-17T13:52:33.606Z,2.27
2018-12-17T13:55:02.447Z,2.25
2018-12-17T13:57:31.502Z,2.26
2018-12-17T14:00:00.622Z,2.27
2018-12-17T14:02:29.680Z,2.20
2018-12-17T14:04:58.744Z,2.21
2018-12-17T14:07:27.960Z,2.15
2018-12-17T14:10:02.419Z,2.10
2018-12-17T14:12:31.506Z,2.08
2018-12-17T14:15:00.582Z,2.05
2018-12-17T14:17:35.241Z,2.06
2018-12-17T14:20:09.897Z,2.07
2018-12-17T14:22:39.017Z,2.08
2018-12-17T14:25:08.073Z,2.07
2018-12-17T14:27:37.175Z,2.05
2018-12-17T14:30:06.489Z,2.04
2018-12-17T14:32:35.549Z,2.02
2018-12-17T14:35:04.614Z,2.02
2018-12-17T14:37:33.710Z,2.04
2018-12-17T14:40:02.760Z,2.05
2018-12-17T14:42:31.814Z,2.05
2018-12-17T14:45:00.924Z,2.04
2018-12-17T14:47:29.982Z,2.03
2018-12-17T14:49:59.073Z,2.02
2018-12-17T14:52:28.172Z,2.02
2018-12-17T14:54:57.240Z,2.03
2018-12-17T14:57:26.296Z,2.00
2018-12-17T14:59:55.390Z,2.02
2018-12-17T15:02:24.452Z,2.02
2018-12-17T15:04:53.522Z,2.03
2018-12-17T15:07:22.623Z,2.00
2018-12-17T15:09:51.687Z,2.00
2018-12-17T15:12:20.771Z,2.00
2018-12-17T15:14:49.871Z,2.00
2018-12-17T15:17:18.961Z,2.01
2018-12-17T15:19:48.035Z,2.03
2018-12-17T15:22:17.222Z,2.02
2018-12-17T15:24:46.303Z,2.04
2018-12-17T15:27:15.344Z,2.05
2018-12-17T15:29:44.550Z,2.05
2018-12-17T15:32:13.613Z,2.02
2018-12-17T15:34:42.672Z,1.99
2018-12-17T15:37:11.813Z,1.97
2018-12-17T15:39:40.876Z,1.96
2018-12-17T15:42:09.944Z,1.94
2018-12-17T15:44:39.374Z,1.95
2018-12-17T15:47:08.425Z,1.95
2018-12-17T15:49:37.486Z,1.95
2018-12-17T15:52:06.820Z,1.96
2018-12-17T15:54:35.654Z,1.95
2018-12-17T15:57:04.710Z,1.97
2018-12-17T15:59:34.006Z,1.97
2018-12-17T16:02:03.061Z,1.97
2018-12-17T16:04:32.127Z,1.99
2018-12-17T16:07:01.224Z,1.99
2018-12-17T16:09:30.261Z,1.99
2018-12-17T16:11:59.354Z,1.98
2018-12-17T16:14:28.446Z,1.95
2018-12-17T16:16:57.536Z,1.96
2018-12-17T16:19:26.594Z,1.95
2018-12-17T16:21:55.692Z,1.97
2018-12-17T16:24:24.753Z,1.97
2018-12-17T16:26:53.821Z,1.97
2018-12-17T16:29:22.923Z,1.97
2018-12-17T16:31:57.256Z,1.96
2018-12-17T16:34:21.058Z,1.95
2018-12-17T16:36:50.190Z,1.93
2018-12-17T16:39:19.245Z,1.94
2018-12-17T16:41:48.300Z,1.93
2018-12-17T16:44:17.396Z,1.92
2018-12-17T16:46:46.477Z,1.91
2018-12-17T16:49:15.535Z,1.91
2018-12-17T16:51:44.620Z,1.92
2018-12-17T16:54:13.688Z,1.91
2018-12-17T16:56:42.759Z,1.92
2018-12-17T16:59:11.913Z,1.92
2018-12-17T17:01:40.983Z,1.92
2018-12-17T17:04:10.083Z,1.91
2018-12-17T17:06:40.156Z,1.91
2018-12-17T17:09:09.221Z,1.90
2018-12-17T17:11:38.294Z,1.90
2018-12-17T17:14:07.383Z,1.89
2018-12-17T17:16:36.458Z,1.88
2018-12-17T17:19:05.524Z,1.86
2018-12-17T17:21:34.623Z,1.85
2018-12-17T17:24:03.688Z,1.83
2018-12-17T17:26:33.720Z,1.83
2018-12-17T17:29:02.802Z,1.79
2018-12-17T17:31:31.858Z,1.81
2018-12-17T17:34:00.917Z,1.81
2018-12-17T17:36:31.059Z,1.80
2018-12-17T17:39:00.132Z,1.79
2018-12-17T17:41:29.187Z,1.78
2018-12-17T17:43:58.319Z,1.77
2018-12-17T17:46:27.375Z,1.77
2018-12-17T17:48:56.434Z,1.77
2018-12-17T17:51:25.532Z,1.77
2018-12-17T17:53:54.604Z,1.78
2018-12-17T17:56:24.611Z,1.78
2018-12-17T17:58:53.712Z,1.80
2018-12-17T18:01:22.792Z,1.80
2018-12-17T18:03:51.856Z,1.83
2018-12-17T18:06:20.972Z,1.82
2018-12-17T18:08:50.041Z,1.83
2018-12-17T18:11:19.108Z,1.84
2018-12-17T18:13:48.198Z,1.85
2018-12-17T18:16:18.297Z,1.85
2018-12-17T18:18:47.365Z,1.83
2018-12-17T18:21:16.461Z,1.82
2018-12-17T18:23:45.533Z,1.81
2018-12-17T18:26:14.619Z,1.81
2018-12-17T18:28:43.713Z,1.81
2018-12-17T18:31:12.784Z,1.81
2018-12-17T18:33:41.844Z,1.81
2018-12-17T18:36:10.922Z,1.82
2018-12-17T18:38:39.978Z,1.81
2018-12-17T18:41:09.045Z,1.82
2018-12-17T18:43:38.124Z,1.84
2018-12-17T18:46:07.181Z,1.85
2018-12-17T18:48:36.242Z,1.84
2018-12-17T18:51:05.367Z,1.84
2018-12-17T18:53:34.427Z,1.83
2018-12-17T18:56:03.492Z,1.83
2018-12-17T18:58:32.586Z,1.83
2018-12-17T19:01:01.654Z,1.83
2018-12-17T19:03:30.946Z,1.83
2018-12-17T19:05:59.827Z,1.84
2018-12-17T19:08:29.112Z,1.85
2018-12-17T19:10:57.939Z,1.85
2018-12-17T19:13:27.396Z,1.86
2018-12-17T19:15:56.217Z,1.87
2018-12-17T19:18:25.267Z,1.87
2018-12-17T19:20:54.349Z,1.87
2018-12-17T19:23:23.405Z,1.87
2018-12-17T19:25:52.462Z,1.86
2018-12-17T19:28:21.556Z,1.87
2018-12-17T19:30:50.857Z,1.86
2018-12-17T19:33:19.714Z,1.86
2018-12-17T19:35:48.822Z,1.87
2018-12-17T19:38:17.886Z,1.87
2018-12-17T19:40:46.960Z,1.87
2018-12-17T19:43:16.081Z,1.87
2018-12-17T19:45:45.159Z,1.86
2018-12-17T19:48:14.236Z,1.86
2018-12-17T19:50:43.579Z,1.88
2018-12-17T19:53:12.719Z,1.88
2018-12-17T19:55:41.959Z,1.89
2018-12-17T19:58:11.091Z,1.88
2018-12-17T20:00:39.933Z,1.88
2018-12-17T20:03:08.997Z,1.88
2018-12-17T20:05:38.096Z,1.86
2018-12-17T20:08:07.176Z,1.87
2018-12-17T20:10:36.236Z,1.87
2018-12-17T20:13:05.364Z,1.87
2018-12-17T20:15:34.445Z,1.86
2018-12-17T20:18:03.535Z,1.86
2018-12-17T20:20:32.642Z,1.87
2018-12-17T20:23:01.718Z,1.89
2018-12-17T20:25:30.810Z,1.88
2018-12-17T20:27:59.909Z,1.88
2018-12-17T20:30:28.994Z,1.89
2018-12-17T20:32:58.075Z,1.88
2018-12-17T20:35:27.183Z,1.89
2018-12-17T20:37:56.267Z,1.88
2018-12-17T20:40:25.327Z,1.88
2018-12-17T20:42:54.451Z,1.87
2018-12-17T20:45:23.503Z,1.87
2018-12-17T20:47:52.588Z,1.86
2018-12-17T20:50:21.712Z,1.86
2018-12-17T20:52:50.815Z,1.85
2018-12-17T20:55:19.872Z,1.85
2018-12-17T20:57:48.941Z,1.84
2018-12-17T21:00:18.017Z,1.84
2018-12-17T21:02:47.097Z,1.82
2018-12-17T21:05:16.194Z,1.82
2018-12-17T21:07:45.276Z,1.81
2018-12-17T21:10:14.344Z,1.82
2018-12-17T21:12:43.440Z,1.80
2018-12-17T21:15:12.754Z,1.80
2018-12-17T21:17:41.606Z,1.81
2018-12-17T21:20:10.716Z,1.81
2018-12-17T21:22:39.896Z,1.82
2018-12-17T21:25:08.973Z,1.82
2018-12-17T21:27:38.096Z,1.82
2018-12-17T21:30:07.296Z,1.80
2018-12-17T21:32:36.361Z,1.80
2018-12-17T21:35:05.439Z,1.79
2018-12-17T21:37:34.504Z,1.79
2018-12-17T21:40:03.761Z,1.79
2018-12-17T21:42:32.864Z,1.79
2018-12-17T21:45:02.065Z,1.80
2018-12-17T21:47:31.150Z,1.80
2018-12-17T21:50:00.524Z,1.81
2018-12-17T21:52:29.584Z,1.82
2018-12-17T21:54:58.652Z,1.81
2018-12-17T21:57:27.734Z,1.81
2018-12-17T21:59:56.800Z,1.78
2018-12-17T22:02:25.861Z,1.78
2018-12-17T22:04:55.050Z,1.78
2018-12-17T22:07:24.114Z,1.77
2018-12-17T22:09:53.179Z,1.76
2018-12-17T22:12:23.141Z,1.77
2018-12-17T22:14:52.204Z,1.78
2018-12-17T22:17:21.284Z,1.79
2018-12-17T22:19:50.368Z,1.81
2018-12-17T22:22:19.421Z,1.82
2018-12-17T22:24:48.487Z,1.84
2018-12-17T22:27:17.579Z,1.85
2018-12-17T22:29:46.629Z,1.86
2018-12-17T22:32:15.734Z,1.86
2018-12-17T22:34:44.894Z,1.85
2018-12-17T22:37:13.948Z,1.84
2018-12-17T22:39:43.014Z,1.85
2018-12-17T22:42:12.176Z,1.86
2018-12-17T22:44:41.237Z,1.87
2018-12-17T22:47:10.283Z,1.87
2018-12-17T22:49:39.378Z,1.87
2018-12-17T22:52:08.434Z,1.88
2018-12-17T22:54:37.492Z,1.87
2018-12-17T22:57:06.594Z,1.86
2018-12-17T22:59:35.664Z,1.86
2018-12-17T23:02:04.729Z,1.85
2018-12-17T23:04:35.171Z,1.85
2018-12-17T23:07:04.285Z,1.84
2018-12-17T23:09:44.972Z,1.84
2018-12-17T23:12:25.672Z,1.83
2018-12-17T23:15:06.318Z,1.82
2018-12-17T23:17:40.676Z,1.81
2018-12-17T23:20:09.988Z,1.83
2018-12-17T23:22:38.818Z,1.82
2018-12-17T23:25:07.907Z,1.81
2018-12-17T23:27:36.973Z,1.80
2018-12-17T23:30:06.039Z,1.81
2018-12-17T23:32:35.102Z,1.82
2018-12-17T23:35:04.225Z,1.81
2018-12-17T23:37:33.305Z,1.82
2018-12-17T23:40:02.383Z,1.81
2018-12-17T23:42:31.451Z,1.83
2018-12-17T23:45:00.514Z,1.83
2018-12-17T23:47:29.574Z,1.82
2018-12-17T23:49:58.652Z,1.82
2018-12-17T23:52:27.712Z,1.82
2018-12-17T23:54:56.773Z,1.82
2018-12-17T23:57:25.865Z,1.82
2018-12-17T23:59:54.987Z,1.83
